Terminal Aerodrome Forecast
Issued by NWS

Current Version | Previous Version | Text Only | Print | Product List | Glossary Off
Versions: 1 2 3 4 5 6 7 8 9 10 11 12 13 14 15 16 17

200
FTUS41 KPBZ 062338
TAFMGW
TAF
KMGW 062338Z 0700/0724 14006KT 6SM -DZ OVC008
     FM070300 21005KT P6SM OVC008
     FM070800 28008KT P6SM OVC015
     FM071500 26006KT P6SM BKN040=

USA.gov is the U.S. government's official web portal to all federal, state and local government web resources and services.